Terminal Aerodrome Forecast
Issued by NWS

Home | Current Version | Previous Version | Text Only | Print | Product List | Glossary On
Versions: 1 2 3 4 5 6 7 8 9 10 11 12 13 14 15 16 17 18 19
925
FTUS41 KALY 292320
TAFPSF
TAF
KPSF 292320Z 3000/3024 36005KT P6SM FEW040 SCT120
     FM300700 00000KT 6SM BR SCT250
     FM301200 VRB03KT P6SM FEW040 BKN250
     FM301600 31005KT P6SM SCT045 BKN150=

USA.gov is the U.S. government's official web portal to all federal, state and local government web resources and services.